createdAt,value
2018-11-21T00:02:34.960Z,12.90
2018-11-21T00:05:23.364Z,10.20
2018-11-21T00:08:11.758Z,20.67
2018-11-21T00:11:00.425Z,25.27
2018-11-21T00:13:48.806Z,21.83
2018-11-21T00:16:30.080Z,22.80
2018-11-21T00:19:10.684Z,25.47
2018-11-21T00:21:51.866Z,25.73
2018-11-21T00:24:32.700Z,24.63
2018-11-21T00:27:13.872Z,25.10
2018-11-21T00:29:54.878Z,25.00
2018-11-21T00:32:36.478Z,20.37
2018-11-21T00:35:17.986Z,26.97
2018-11-21T00:37:59.399Z,27.03
2018-11-21T00:40:40.929Z,26.93
2018-11-21T00:43:22.144Z,24.67
2018-11-21T00:46:03.256Z,23.93
2018-11-21T00:48:44.820Z,26.30
2018-11-21T00:51:26.220Z,27.57
2018-11-21T00:54:07.055Z,21.57
2018-11-21T00:56:48.184Z,24.37
2018-11-21T00:59:28.812Z,20.00
2018-11-21T01:02:10.124Z,23.40
2018-11-21T01:04:51.348Z,19.07
2018-11-21T01:07:32.503Z,26.63
2018-11-21T01:10:13.524Z,31.30
2018-11-21T01:12:54.824Z,28.57
2018-11-21T01:15:35.899Z,26.97
2018-11-21T01:18:16.920Z,26.67
2018-11-21T01:20:57.709Z,29.63
2018-11-21T01:23:38.607Z,26.13
2018-11-21T01:26:19.534Z,23.10
2018-11-21T01:29:03.067Z,28.57
2018-11-21T01:31:44.094Z,26.53
2018-11-21T01:34:24.955Z,27.07
2018-11-21T01:37:06.079Z,29.00
2018-11-21T01:39:47.190Z,28.97
2018-11-21T01:42:28.518Z,27.03
2018-11-21T01:45:09.067Z,24.30
2018-11-21T01:47:49.922Z,33.00
2018-11-21T01:50:30.704Z,27.63
2018-11-21T01:53:11.259Z,29.23
2018-11-21T01:55:51.912Z,25.50
2018-11-21T01:58:33.044Z,28.50
2018-11-21T02:01:13.809Z,28.77
2018-11-21T02:03:55.298Z,26.40
2018-11-21T02:06:36.660Z,29.43
2018-11-21T02:09:18.131Z,27.70
2018-11-21T02:11:58.749Z,27.03
2018-11-21T02:14:40.409Z,31.47
2018-11-21T02:17:22.088Z,26.60
2018-11-21T02:20:02.921Z,26.80
2018-11-21T02:22:44.126Z,28.57
2018-11-21T02:25:24.072Z,31.20
2018-11-21T02:28:12.450Z,30.30
2018-11-21T02:34:08.807Z,27.00
2018-11-21T02:39:51.480Z,31.60
2018-11-21T02:42:39.896Z,29.77
2018-11-21T02:45:28.536Z,29.00
2018-11-21T02:48:16.990Z,28.73
2018-11-21T02:51:05.827Z,33.00
2018-11-21T02:53:54.821Z,27.70
2018-11-21T02:57:02.890Z,28.87
2018-11-21T02:59:52.709Z,23.70
2018-11-21T03:02:41.635Z,27.30
2018-11-21T03:05:30.318Z,33.73
2018-11-21T03:08:18.737Z,30.73
2018-11-21T03:16:56.227Z,36.30
2018-11-21T03:19:44.915Z,33.37
2018-11-21T03:22:33.286Z,37.87
2018-11-21T03:25:21.712Z,32.03
2018-11-21T03:28:10.139Z,27.67
2018-11-21T03:30:58.573Z,34.70
2018-11-21T03:33:47.245Z,35.57
2018-11-21T03:36:35.673Z,31.00
2018-11-21T03:39:25.156Z,29.70
2018-11-21T03:45:09.676Z,37.93
2018-11-21T03:47:58.652Z,35.50
2018-11-21T03:50:47.107Z,37.93
2018-11-21T03:53:35.755Z,35.33
2018-11-21T03:56:24.148Z,33.87
2018-11-21T04:02:07.759Z,39.63
2018-11-21T04:04:56.814Z,41.40
2018-11-21T04:07:45.571Z,40.87
2018-11-21T04:10:34.296Z,33.50
2018-11-21T04:13:41.755Z,28.33
2018-11-21T04:16:30.407Z,33.47
2018-11-21T04:19:18.816Z,40.27
2018-11-21T04:22:07.545Z,36.40
2018-11-21T04:24:55.960Z,47.83
2018-11-21T04:27:44.650Z,71.27
2018-11-21T04:30:33.360Z,84.10
2018-11-21T04:33:22.401Z,67.03
2018-11-21T04:36:11.021Z,80.57
2018-11-21T04:38:59.383Z,62.83
2018-11-21T04:41:48.210Z,99.37
2018-11-21T04:44:37.124Z,72.63
2018-11-21T04:47:25.582Z,83.53
2018-11-21T04:50:13.979Z,71.27
2018-11-21T04:53:02.967Z,90.63
2018-11-21T04:55:51.424Z,63.20
2018-11-21T04:58:40.189Z,62.17
2018-11-21T05:01:28.590Z,71.20
2018-11-21T05:04:17.274Z,57.07
2018-11-21T05:07:05.663Z,47.03
2018-11-21T05:09:54.377Z,57.40
2018-11-21T05:12:43.313Z,54.53
2018-11-21T05:18:26.361Z,50.83
2018-11-21T05:21:15.062Z,41.37
2018-11-21T05:26:57.617Z,43.57
2018-11-21T05:29:46.332Z,37.67
2018-11-21T05:32:35.080Z,49.97
2018-11-21T05:35:24.068Z,33.73
2018-11-21T05:38:12.558Z,54.90
2018-11-21T05:43:55.997Z,52.03
2018-11-21T05:46:44.405Z,42.23
2018-11-21T05:49:32.829Z,47.37
2018-11-21T05:52:21.249Z,63.40
2018-11-21T05:55:10.090Z,56.73
2018-11-21T05:57:59.126Z,88.53
2018-11-21T06:00:49.212Z,55.43
2018-11-21T06:03:37.116Z,52.87
2018-11-21T06:06:25.912Z,57.73
2018-11-21T06:09:14.363Z,55.07
2018-11-21T06:12:04.352Z,48.47
2018-11-21T06:14:51.477Z,43.23
2018-11-21T06:17:39.881Z,40.37
2018-11-21T06:20:28.309Z,40.83
2018-11-21T06:23:16.708Z,36.57
2018-11-21T06:26:05.594Z,44.27
2018-11-21T06:28:54.316Z,46.80
2018-11-21T06:31:42.728Z,35.67
2018-11-21T06:34:50.194Z,37.93
2018-11-21T06:37:38.987Z,35.90
2018-11-21T06:40:27.787Z,38.73
2018-11-21T06:43:35.239Z,40.93
2018-11-21T06:46:24.012Z,34.60
2018-11-21T06:49:13.145Z,34.63
2018-11-21T06:55:14.605Z,42.50
2018-11-21T06:58:03.334Z,39.10
2018-11-21T07:00:51.984Z,41.40
2018-11-21T07:03:40.363Z,41.77
2018-11-21T07:06:28.836Z,45.73
2018-11-21T07:09:17.606Z,37.17
2018-11-21T07:12:06.628Z,42.73
2018-11-21T07:14:55.373Z,45.50
2018-11-21T07:17:43.772Z,45.13
2018-11-21T07:20:51.187Z,40.20
2018-11-21T07:23:39.902Z,36.53
2018-11-21T07:26:47.347Z,42.10
2018-11-21T07:29:36.079Z,43.90
2018-11-21T07:32:27.144Z,33.17
2018-11-21T07:35:18.046Z,38.73
2018-11-21T07:38:05.473Z,37.20
2018-11-21T07:40:53.881Z,40.40
2018-11-21T07:43:42.264Z,35.83
2018-11-21T07:49:25.206Z,37.70
2018-11-21T07:52:13.644Z,43.50
2018-11-21T07:57:58.873Z,28.70
2018-11-21T08:01:05.749Z,40.50
2018-11-21T08:03:59.718Z,32.77
2018-11-21T08:07:07.228Z,40.43
2018-11-21T08:10:14.704Z,34.57
2018-11-21T08:13:22.176Z,37.13
2018-11-21T08:16:29.377Z,36.17
2018-11-21T08:19:36.572Z,38.03
2018-11-21T08:22:43.788Z,35.50
2018-11-21T08:25:50.988Z,36.50
2018-11-21T08:28:39.813Z,31.80
2018-11-21T08:31:28.810Z,33.60
2018-11-21T08:43:00.649Z,30.83
2018-11-21T08:45:49.097Z,26.30
2018-11-21T08:51:33.049Z,27.00
2018-11-21T08:54:21.451Z,20.90
2018-11-21T09:02:58.443Z,18.80
2018-11-21T09:05:46.879Z,20.13
2018-11-21T09:08:35.627Z,20.60
2018-11-21T09:11:24.351Z,18.20
2018-11-21T09:14:13.640Z,16.43
2018-11-21T09:17:02.082Z,20.27
2018-11-21T09:19:50.737Z,17.63
2018-11-21T09:22:39.136Z,23.07
2018-11-21T09:28:21.910Z,13.70
2018-11-21T09:31:10.299Z,13.10
2018-11-21T09:33:59.420Z,15.07
2018-11-21T09:36:47.793Z,13.33
2018-11-21T09:39:36.223Z,19.77
2018-11-21T09:48:14.535Z,9.37
2018-11-21T09:51:02.950Z,10.83
2018-11-21T09:53:51.605Z,8.50
2018-11-21T09:56:40.031Z,9.27
2018-11-21T09:59:29.021Z,7.20
2018-11-21T10:02:37.013Z,11.60
2018-11-21T10:05:25.395Z,14.30
2018-11-21T10:08:37.765Z,12.93
2018-11-21T10:11:26.175Z,7.67
2018-11-21T10:14:14.914Z,12.63
2018-11-21T10:17:03.325Z,16.27
2018-11-21T10:19:52.087Z,13.57
2018-11-21T10:22:41.237Z,9.10
2018-11-21T10:25:29.870Z,9.17
2018-11-21T10:28:18.270Z,10.70
2018-11-21T10:31:06.648Z,18.20
2018-11-21T10:33:55.041Z,20.47
2018-11-21T10:39:52.043Z,14.20
2018-11-21T10:42:40.789Z,13.60
2018-11-21T10:45:29.245Z,19.00
2018-11-21T10:48:17.657Z,25.80
2018-11-21T10:51:06.445Z,23.07
2018-11-21T10:53:55.107Z,22.13
2018-11-21T10:56:44.270Z,18.10
2018-11-21T10:59:32.644Z,21.90
2018-11-21T11:02:40.125Z,21.53
2018-11-21T11:05:47.310Z,23.90
2018-11-21T11:08:54.753Z,16.83
2018-11-21T11:12:01.920Z,17.70
2018-11-21T11:18:42.263Z,19.53
2018-11-21T11:21:49.457Z,11.87
2018-11-21T11:24:56.647Z,19.57
2018-11-21T11:28:03.853Z,20.33
2018-11-21T11:31:11.020Z,19.90
2018-11-21T11:34:18.210Z,19.90
2018-11-21T11:37:25.354Z,23.67
2018-11-21T11:40:32.569Z,15.73
2018-11-21T11:43:39.760Z,13.23
2018-11-21T11:46:46.935Z,8.63
2018-11-21T11:49:54.132Z,17.70
2018-11-21T11:53:01.300Z,6.43
2018-11-21T11:56:08.531Z,10.60
2018-11-21T11:59:15.709Z,14.53
2018-11-21T12:02:22.894Z,8.50
2018-11-21T12:05:30.093Z,11.80
2018-11-21T12:08:37.262Z,17.33
2018-11-21T12:11:44.746Z,11.10
2018-11-21T12:18:30.232Z,13.93
2018-11-21T12:21:37.656Z,17.17
2018-11-21T12:24:45.164Z,16.60
2018-11-21T12:27:52.503Z,19.53
2018-11-21T12:30:59.705Z,16.53
2018-11-21T12:34:07.152Z,15.23
2018-11-21T12:37:09.059Z,15.40
2018-11-21T12:40:16.524Z,18.70
2018-11-21T12:43:23.709Z,12.83
2018-11-21T12:46:30.895Z,14.67
2018-11-21T12:49:38.036Z,16.50
2018-11-21T12:52:45.470Z,17.57
2018-11-21T12:55:52.681Z,15.07
2018-11-21T12:58:59.900Z,18.97
2018-11-21T13:02:07.089Z,13.73
2018-11-21T13:05:14.516Z,17.00
2018-11-21T13:08:21.709Z,21.67
2018-11-21T13:11:22.446Z,18.43
2018-11-21T13:14:31.543Z,16.43
2018-11-21T13:17:38.745Z,16.13
2018-11-21T13:20:46.428Z,12.40
2018-11-21T13:23:53.635Z,14.23
2018-11-21T13:27:00.792Z,15.60
2018-11-21T13:30:08.000Z,15.27
2018-11-21T13:33:15.385Z,14.53
2018-11-21T13:36:22.803Z,13.87
2018-11-21T13:39:31.005Z,15.33
2018-11-21T13:42:38.410Z,15.33
2018-11-21T13:45:45.600Z,17.03
2018-11-21T13:48:42.118Z,14.90
2018-11-21T13:51:49.342Z,15.27
2018-11-21T13:54:56.528Z,14.13
2018-11-21T13:57:44.888Z,10.97
2018-11-21T14:03:28.209Z,17.07
2018-11-21T14:06:16.795Z,17.83
2018-11-21T14:09:07.943Z,13.10
2018-11-21T14:11:56.323Z,16.20
2018-11-21T14:14:44.810Z,11.20
2018-11-21T14:17:33.513Z,12.70
2018-11-21T14:20:21.942Z,9.97
2018-11-21T14:26:05.665Z,15.47
2018-11-21T14:28:54.050Z,12.87
2018-11-21T14:31:42.455Z,11.70
2018-11-21T14:34:30.875Z,17.17
2018-11-21T14:37:19.301Z,11.43
2018-11-21T14:40:27.082Z,17.73
2018-11-21T14:43:15.458Z,12.67
2018-11-21T14:46:04.389Z,15.83
2018-11-21T14:48:52.799Z,13.90
2018-11-21T14:51:41.827Z,13.07
2018-11-21T14:54:30.601Z,18.90
2018-11-21T14:57:19.014Z,14.23
2018-11-21T15:00:10.495Z,13.23
2018-11-21T15:02:58.907Z,15.33
2018-11-21T15:08:42.252Z,13.07
2018-11-21T15:14:25.593Z,16.20
2018-11-21T15:20:09.988Z,20.03
2018-11-21T15:23:17.431Z,13.70
2018-11-21T15:26:24.860Z,18.90
2018-11-21T15:29:13.861Z,16.97
2018-11-21T15:32:02.555Z,15.63
2018-11-21T15:34:51.261Z,12.27
2018-11-21T15:37:40.900Z,18.10
2018-11-21T15:40:29.576Z,16.50
2018-11-21T15:46:12.010Z,16.23
2018-11-21T15:57:43.171Z,13.57
2018-11-21T16:06:22.364Z,21.10
2018-11-21T16:12:06.264Z,16.57
2018-11-21T16:18:08.788Z,14.97
2018-11-21T16:20:57.476Z,18.97
2018-11-21T16:26:40.818Z,15.03
2018-11-21T16:29:30.678Z,15.73
2018-11-21T16:32:18.280Z,17.40
2018-11-21T16:35:08.490Z,12.90
2018-11-21T16:37:55.620Z,13.13
2018-11-21T16:43:39.027Z,15.53
2018-11-21T16:46:27.432Z,15.87
2018-11-21T16:49:16.105Z,19.43
2018-11-21T16:54:59.626Z,18.60
2018-11-21T16:57:48.799Z,18.27
2018-11-21T17:00:37.784Z,19.97
2018-11-21T17:03:26.583Z,17.83
2018-11-21T17:06:34.018Z,18.10
2018-11-21T17:12:16.482Z,17.03
2018-11-21T17:15:05.380Z,17.07
2018-11-21T17:17:53.767Z,20.30
2018-11-21T17:20:44.039Z,18.10
2018-11-21T17:23:32.545Z,17.43
2018-11-21T17:26:21.300Z,19.40
2018-11-21T17:29:09.684Z,19.67
2018-11-21T17:31:58.494Z,19.23
2018-11-21T17:34:47.230Z,22.00
2018-11-21T17:37:36.021Z,21.00
2018-11-21T17:43:38.941Z,16.60
2018-11-21T17:46:27.582Z,18.77
2018-11-21T17:49:15.984Z,20.60
2018-11-21T17:52:04.416Z,17.70
2018-11-21T17:54:52.827Z,18.33
2018-11-21T17:57:41.552Z,19.00
2018-11-21T18:00:30.991Z,14.63
2018-11-21T18:03:19.388Z,16.93
2018-11-21T18:06:07.804Z,16.90
2018-11-21T18:09:15.223Z,15.23
2018-11-21T18:12:03.614Z,16.47
2018-11-21T18:14:51.997Z,15.20
2018-11-21T18:17:40.928Z,16.40
2018-11-21T18:20:29.322Z,18.33
2018-11-21T18:23:17.713Z,14.83
2018-11-21T18:26:06.650Z,19.10
2018-11-21T18:29:14.070Z,16.73
2018-11-21T18:34:57.143Z,17.50
2018-11-21T18:37:46.014Z,17.83
2018-11-21T18:40:34.411Z,20.07
2018-11-21T18:43:22.778Z,23.23
2018-11-21T18:46:11.183Z,22.20
2018-11-21T18:49:00.103Z,17.43
2018-11-21T18:51:48.662Z,20.37
2018-11-21T18:54:37.075Z,20.60
2018-11-21T18:57:44.619Z,24.10
2018-11-21T19:00:34.530Z,20.70
2018-11-21T19:03:23.225Z,23.03
2018-11-21T19:06:11.611Z,22.73
2018-11-21T19:09:00.324Z,23.63
2018-11-21T19:11:48.742Z,23.17
2018-11-21T19:14:37.218Z,23.07
2018-11-21T19:23:15.515Z,24.67
2018-11-21T19:26:04.139Z,27.37
2018-11-21T19:31:47.688Z,29.50
2018-11-21T19:37:30.904Z,27.03
2018-11-21T19:40:19.336Z,26.43
2018-11-21T19:43:08.076Z,30.10
2018-11-21T19:45:56.483Z,26.17
2018-11-21T19:48:45.176Z,34.47
2018-11-21T19:51:33.566Z,37.77
2018-11-21T19:54:22.272Z,30.70
2018-11-21T19:57:11.060Z,36.83
2018-11-21T19:59:59.676Z,41.13
2018-11-21T20:02:48.582Z,46.50
2018-11-21T20:05:37.262Z,35.07
2018-11-21T20:08:26.312Z,37.03
2018-11-21T20:11:15.032Z,38.07
2018-11-21T20:14:03.440Z,36.50
2018-11-21T20:16:51.827Z,42.83
2018-11-21T20:19:40.210Z,38.60
2018-11-21T20:22:28.905Z,48.37
2018-11-21T20:25:18.550Z,39.57
2018-11-21T20:28:06.959Z,38.37
2018-11-21T20:30:55.354Z,40.97
2018-11-21T20:33:43.749Z,50.83
2018-11-21T20:36:32.142Z,51.20
2018-11-21T20:39:20.571Z,48.90
2018-11-21T20:42:09.003Z,40.57
2018-11-21T20:44:58.070Z,50.77
2018-11-21T20:47:47.291Z,53.37
2018-11-21T20:50:35.718Z,48.30
2018-11-21T20:53:24.727Z,43.73
2018-11-21T20:59:07.514Z,44.23
2018-11-21T21:01:56.239Z,43.30
2018-11-21T21:04:45.328Z,49.80
2018-11-21T21:10:30.006Z,48.77
2018-11-21T21:13:18.204Z,41.60
2018-11-21T21:16:06.608Z,43.00
2018-11-21T21:19:14.034Z,46.33
2018-11-21T21:24:57.645Z,53.27
2018-11-21T21:27:46.092Z,43.70
2018-11-21T21:30:34.954Z,46.03
2018-11-21T21:33:23.889Z,48.50
2018-11-21T21:36:12.639Z,42.30
2018-11-21T21:39:03.730Z,45.73
2018-11-21T21:41:44.418Z,38.87
2018-11-21T21:44:26.509Z,43.40
2018-11-21T21:47:07.885Z,44.30
2018-11-21T21:49:49.538Z,51.97
2018-11-21T21:52:30.845Z,49.73
2018-11-21T21:55:12.832Z,50.90
2018-11-21T21:57:53.769Z,52.67
2018-11-21T22:00:34.436Z,50.20
2018-11-21T22:03:15.352Z,51.33
2018-11-21T22:05:56.409Z,61.03
2018-11-21T22:08:37.224Z,63.73
2018-11-21T22:11:18.597Z,52.20
2018-11-21T22:13:59.432Z,58.50
2018-11-21T22:16:40.487Z,51.53
2018-11-21T22:19:21.696Z,48.83
2018-11-21T22:22:06.354Z,52.97
2018-11-21T22:24:47.683Z,55.30
2018-11-21T22:27:28.753Z,53.63
2018-11-21T22:30:11.981Z,52.57
2018-11-21T22:32:53.352Z,58.57
2018-11-21T22:35:35.787Z,51.40
2018-11-21T22:38:18.063Z,54.27
2018-11-21T22:40:58.926Z,44.53
2018-11-21T22:43:39.630Z,62.50
2018-11-21T22:46:20.090Z,55.93
2018-11-21T22:49:04.696Z,58.23
2018-11-21T22:51:47.682Z,54.50
2018-11-21T22:54:26.629Z,55.57
2018-11-21T22:57:07.656Z,60.30
2018-11-21T22:59:49.025Z,50.77
2018-11-21T23:02:29.487Z,57.80
2018-11-21T23:05:10.329Z,60.00
2018-11-21T23:07:51.777Z,54.13
2018-11-21T23:10:33.379Z,53.30
2018-11-21T23:13:13.979Z,56.00
2018-11-21T23:15:54.986Z,55.17
2018-11-21T23:18:35.784Z,51.17
2018-11-21T23:21:17.269Z,56.30
2018-11-21T23:23:57.843Z,57.77
2018-11-21T23:26:39.399Z,55.23
2018-11-21T23:29:20.585Z,53.30
2018-11-21T23:32:04.572Z,55.03
2018-11-21T23:34:45.827Z,47.67
2018-11-21T23:37:26.756Z,59.57
2018-11-21T23:40:07.600Z,57.83
2018-11-21T23:42:49.651Z,53.57
2018-11-21T23:45:31.052Z,52.50
2018-11-21T23:48:12.764Z,51.90
2018-11-21T23:50:53.892Z,51.13
2018-11-21T23:53:34.700Z,54.40
2018-11-21T23:56:15.899Z,47.97
2018-11-21T23:58:57.060Z,45.20
